sensor_id;sensor_type;location;lat;lon;timestamp;P1;durP1;ratioP1;P2;durP2;ratioP2
44774;SDS011;31340;51.402;0.016;2022-12-29T00:00:21;26.08;;;4.68;;
44774;SDS011;31340;51.402;0.016;2022-12-29T00:02:49;33.08;;;4.82;;
44774;SDS011;31340;51.402;0.016;2022-12-29T00:05:17;29.60;;;4.60;;
44774;SDS011;31340;51.402;0.016;2022-12-29T00:07:44;33.13;;;4.32;;
44774;SDS011;31340;51.402;0.016;2022-12-29T00:10:12;33.03;;;5.10;;
44774;SDS011;31340;51.402;0.016;2022-12-29T00:12:39;32.65;;;6.00;;
44774;SDS011;31340;51.402;0.016;2022-12-29T00:15:25;30.60;;;5.18;;
44774;SDS011;31340;51.402;0.016;2022-12-29T00:18:06;35.78;;;4.80;;
44774;SDS011;31340;51.402;0.016;2022-12-29T00:20:35;31.85;;;4.05;;
44774;SDS011;31340;51.402;0.016;2022-12-29T00:23:21;35.13;;;4.82;;
44774;SDS011;31340;51.402;0.016;2022-12-29T00:26:12;25.67;;;5.47;;
44774;SDS011;31340;51.402;0.016;2022-12-29T00:29:01;29.38;;;5.45;;
44774;SDS011;31340;51.402;0.016;2022-12-29T00:31:48;27.02;;;5.28;;
44774;SDS011;31340;51.402;0.016;2022-12-29T00:34:34;29.30;;;3.80;;
44774;SDS011;31340;51.402;0.016;2022-12-29T00:37:20;27.13;;;4.38;;
44774;SDS011;31340;51.402;0.016;2022-12-29T00:40:08;28.40;;;5.03;;
44774;SDS011;31340;51.402;0.016;2022-12-29T00:42:55;29.13;;;4.53;;
44774;SDS011;31340;51.402;0.016;2022-12-29T00:45:41;36.40;;;4.40;;
44774;SDS011;31340;51.402;0.016;2022-12-29T00:48:09;36.70;;;4.50;;
44774;SDS011;31340;51.402;0.016;2022-12-29T00:50:36;31.48;;;4.70;;
44774;SDS011;31340;51.402;0.016;2022-12-29T00:53:04;32.65;;;4.80;;
44774;SDS011;31340;51.402;0.016;2022-12-29T00:55:34;26.75;;;4.07;;
44774;SDS011;31340;51.402;0.016;2022-12-29T00:58:03;22.08;;;4.15;;
44774;SDS011;31340;51.402;0.016;2022-12-29T01:00:31;34.83;;;5.60;;
44774;SDS011;31340;51.402;0.016;2022-12-29T01:03:00;22.48;;;4.45;;
44774;SDS011;31340;51.402;0.016;2022-12-29T01:05:28;34.53;;;4.40;;
44774;SDS011;31340;51.402;0.016;2022-12-29T01:07:55;27.15;;;4.07;;
44774;SDS011;31340;51.402;0.016;2022-12-29T01:10:23;35.67;;;5.55;;
44774;SDS011;31340;51.402;0.016;2022-12-29T01:12:52;31.73;;;4.75;;
44774;SDS011;31340;51.402;0.016;2022-12-29T01:15:19;25.60;;;4.30;;
44774;SDS011;31340;51.402;0.016;2022-12-29T01:17:48;23.80;;;4.32;;
44774;SDS011;31340;51.402;0.016;2022-12-29T01:20:15;24.17;;;4.28;;
44774;SDS011;31340;51.402;0.016;2022-12-29T01:22:44;27.98;;;4.93;;
44774;SDS011;31340;51.402;0.016;2022-12-29T01:25:12;33.20;;;4.43;;
44774;SDS011;31340;51.402;0.016;2022-12-29T01:27:40;30.00;;;5.00;;
44774;SDS011;31340;51.402;0.016;2022-12-29T01:30:07;34.90;;;5.15;;
44774;SDS011;31340;51.402;0.016;2022-12-29T01:32:35;37.67;;;5.30;;
44774;SDS011;31340;51.402;0.016;2022-12-29T01:35:03;31.30;;;5.47;;
44774;SDS011;31340;51.402;0.016;2022-12-29T01:37:34;34.90;;;4.93;;
44774;SDS011;31340;51.402;0.016;2022-12-29T01:40:02;34.00;;;4.40;;
44774;SDS011;31340;51.402;0.016;2022-12-29T01:42:31;35.60;;;4.50;;
44774;SDS011;31340;51.402;0.016;2022-12-29T01:45:00;47.45;;;5.15;;
44774;SDS011;31340;51.402;0.016;2022-12-29T01:47:52;29.48;;;5.80;;
44774;SDS011;31340;51.402;0.016;2022-12-29T01:55:40;48.88;;;5.65;;
44774;SDS011;31340;51.402;0.016;2022-12-29T01:58:13;26.77;;;4.47;;
44774;SDS011;31340;51.402;0.016;2022-12-29T02:00:43;26.02;;;4.38;;
44774;SDS011;31340;51.402;0.016;2022-12-29T02:03:11;33.60;;;4.97;;
44774;SDS011;31340;51.402;0.016;2022-12-29T02:08:30;34.95;;;5.38;;
44774;SDS011;31340;51.402;0.016;2022-12-29T02:11:00;31.10;;;5.63;;
44774;SDS011;31340;51.402;0.016;2022-12-29T02:13:33;36.42;;;5.80;;
44774;SDS011;31340;51.402;0.016;2022-12-29T02:18:42;31.10;;;5.05;;
44774;SDS011;31340;51.402;0.016;2022-12-29T02:24:03;30.02;;;5.45;;
44774;SDS011;31340;51.402;0.016;2022-12-29T02:26:57;28.45;;;4.30;;
44774;SDS011;31340;51.402;0.016;2022-12-29T02:29:36;35.67;;;4.97;;
44774;SDS011;31340;51.402;0.016;2022-12-29T02:32:23;28.77;;;5.20;;
44774;SDS011;31340;51.402;0.016;2022-12-29T02:40:29;34.42;;;4.85;;
44774;SDS011;31340;51.402;0.016;2022-12-29T02:46:05;33.80;;;6.00;;
44774;SDS011;31340;51.402;0.016;2022-12-29T02:48:42;33.58;;;4.60;;
44774;SDS011;31340;51.402;0.016;2022-12-29T02:51:23;40.70;;;5.40;;
44774;SDS011;31340;51.402;0.016;2022-12-29T02:54:03;40.88;;;7.35;;
44774;SDS011;31340;51.402;0.016;2022-12-29T02:56:49;33.35;;;4.90;;
44774;SDS011;31340;51.402;0.016;2022-12-29T02:59:17;29.23;;;5.18;;
44774;SDS011;31340;51.402;0.016;2022-12-29T03:07:43;35.65;;;5.68;;
44774;SDS011;31340;51.402;0.016;2022-12-29T03:10:25;38.20;;;5.05;;
44774;SDS011;31340;51.402;0.016;2022-12-29T03:13:01;34.90;;;5.90;;
44774;SDS011;31340;51.402;0.016;2022-12-29T03:16:07;31.27;;;5.38;;
44774;SDS011;31340;51.402;0.016;2022-12-29T03:19:05;39.20;;;6.60;;
44774;SDS011;31340;51.402;0.016;2022-12-29T03:21:38;32.30;;;5.45;;
44774;SDS011;31340;51.402;0.016;2022-12-29T03:24:32;39.70;;;5.63;;
44774;SDS011;31340;51.402;0.016;2022-12-29T03:27:14;49.47;;;6.30;;
44774;SDS011;31340;51.402;0.016;2022-12-29T03:29:51;47.20;;;6.43;;
44774;SDS011;31340;51.402;0.016;2022-12-29T03:32:22;46.15;;;6.40;;
44774;SDS011;31340;51.402;0.016;2022-12-29T03:34:53;41.22;;;6.65;;
44774;SDS011;31340;51.402;0.016;2022-12-29T03:37:23;35.65;;;5.70;;
44774;SDS011;31340;51.402;0.016;2022-12-29T03:39:57;41.83;;;8.02;;
44774;SDS011;31340;51.402;0.016;2022-12-29T03:42:25;36.80;;;6.20;;
44774;SDS011;31340;51.402;0.016;2022-12-29T03:44:57;42.92;;;6.75;;
44774;SDS011;31340;51.402;0.016;2022-12-29T03:47:25;36.03;;;5.80;;
44774;SDS011;31340;51.402;0.016;2022-12-29T03:49:53;33.78;;;6.03;;
44774;SDS011;31340;51.402;0.016;2022-12-29T03:52:21;43.72;;;6.05;;
44774;SDS011;31340;51.402;0.016;2022-12-29T03:54:51;38.67;;;7.72;;
44774;SDS011;31340;51.402;0.016;2022-12-29T03:57:18;44.05;;;6.25;;
44774;SDS011;31340;51.402;0.016;2022-12-29T03:59:54;36.75;;;5.35;;
44774;SDS011;31340;51.402;0.016;2022-12-29T04:02:21;30.88;;;5.53;;
44774;SDS011;31340;51.402;0.016;2022-12-29T04:04:51;34.97;;;6.67;;
44774;SDS011;31340;51.402;0.016;2022-12-29T04:07:19;37.42;;;5.25;;
44774;SDS011;31340;51.402;0.016;2022-12-29T04:09:47;36.17;;;5.15;;
44774;SDS011;31340;51.402;0.016;2022-12-29T04:12:20;39.88;;;5.57;;
44774;SDS011;31340;51.402;0.016;2022-12-29T04:14:48;37.17;;;5.15;;
44774;SDS011;31340;51.402;0.016;2022-12-29T04:17:17;38.15;;;6.30;;
44774;SDS011;31340;51.402;0.016;2022-12-29T04:22:16;34.25;;;6.40;;
44774;SDS011;31340;51.402;0.016;2022-12-29T04:24:44;36.72;;;5.80;;
44774;SDS011;31340;51.402;0.016;2022-12-29T04:27:12;36.15;;;5.53;;
44774;SDS011;31340;51.402;0.016;2022-12-29T04:30:01;34.75;;;6.20;;
44774;SDS011;31340;51.402;0.016;2022-12-29T04:32:41;35.87;;;5.30;;
44774;SDS011;31340;51.402;0.016;2022-12-29T04:35:08;39.17;;;5.25;;
44774;SDS011;31340;51.402;0.016;2022-12-29T04:37:36;36.10;;;5.72;;
44774;SDS011;31340;51.402;0.016;2022-12-29T04:40:03;30.55;;;5.93;;
44774;SDS011;31340;51.402;0.016;2022-12-29T04:42:31;41.42;;;6.30;;
44774;SDS011;31340;51.402;0.016;2022-12-29T04:44:59;45.67;;;6.07;;
44774;SDS011;31340;51.402;0.016;2022-12-29T04:47:48;36.67;;;5.97;;
44774;SDS011;31340;51.402;0.016;2022-12-29T04:50:25;45.22;;;5.28;;
44774;SDS011;31340;51.402;0.016;2022-12-29T04:53:01;41.58;;;6.75;;
44774;SDS011;31340;51.402;0.016;2022-12-29T04:55:28;44.97;;;6.18;;
44774;SDS011;31340;51.402;0.016;2022-12-29T04:57:56;45.42;;;7.20;;
44774;SDS011;31340;51.402;0.016;2022-12-29T05:00:25;40.88;;;6.50;;
44774;SDS011;31340;51.402;0.016;2022-12-29T05:02:52;26.98;;;4.97;;
44774;SDS011;31340;51.402;0.016;2022-12-29T05:05:21;35.15;;;6.10;;
44774;SDS011;31340;51.402;0.016;2022-12-29T05:07:50;30.48;;;5.93;;
44774;SDS011;31340;51.402;0.016;2022-12-29T05:10:18;38.85;;;6.45;;
44774;SDS011;31340;51.402;0.016;2022-12-29T05:12:50;45.95;;;6.15;;
44774;SDS011;31340;51.402;0.016;2022-12-29T05:15:18;36.28;;;5.32;;
44774;SDS011;31340;51.402;0.016;2022-12-29T05:17:46;35.63;;;5.47;;
44774;SDS011;31340;51.402;0.016;2022-12-29T05:20:13;44.35;;;7.60;;
44774;SDS011;31340;51.402;0.016;2022-12-29T05:22:41;35.55;;;6.38;;
44774;SDS011;31340;51.402;0.016;2022-12-29T05:25:09;32.25;;;6.03;;
44774;SDS011;31340;51.402;0.016;2022-12-29T05:27:51;35.88;;;4.60;;
44774;SDS011;31340;51.402;0.016;2022-12-29T05:30:28;39.15;;;6.45;;
44774;SDS011;31340;51.402;0.016;2022-12-29T05:32:56;38.13;;;6.20;;
44774;SDS011;31340;51.402;0.016;2022-12-29T05:35:24;35.60;;;7.07;;
44774;SDS011;31340;51.402;0.016;2022-12-29T05:37:52;47.00;;;6.25;;
44774;SDS011;31340;51.402;0.016;2022-12-29T05:40:20;36.58;;;6.15;;
44774;SDS011;31340;51.402;0.016;2022-12-29T05:42:47;36.15;;;6.18;;
44774;SDS011;31340;51.402;0.016;2022-12-29T05:45:38;30.70;;;5.57;;
44774;SDS011;31340;51.402;0.016;2022-12-29T05:48:32;29.60;;;5.20;;
44774;SDS011;31340;51.402;0.016;2022-12-29T05:51:12;34.33;;;4.53;;
44774;SDS011;31340;51.402;0.016;2022-12-29T05:53:47;35.75;;;5.05;;
44774;SDS011;31340;51.402;0.016;2022-12-29T05:56:15;38.95;;;4.18;;
44774;SDS011;31340;51.402;0.016;2022-12-29T05:58:45;30.02;;;6.25;;
44774;SDS011;31340;51.402;0.016;2022-12-29T06:01:12;27.33;;;4.82;;
44774;SDS011;31340;51.402;0.016;2022-12-29T06:03:40;27.55;;;3.75;;
44774;SDS011;31340;51.402;0.016;2022-12-29T06:06:14;31.15;;;5.43;;
44774;SDS011;31340;51.402;0.016;2022-12-29T06:08:42;28.45;;;3.28;;
44774;SDS011;31340;51.402;0.016;2022-12-29T06:11:10;27.48;;;4.78;;
44774;SDS011;31340;51.402;0.016;2022-12-29T06:13:40;25.17;;;3.75;;
44774;SDS011;31340;51.402;0.016;2022-12-29T06:16:09;20.63;;;3.50;;
44774;SDS011;31340;51.402;0.016;2022-12-29T06:18:38;18.83;;;3.28;;
44774;SDS011;31340;51.402;0.016;2022-12-29T06:21:07;22.23;;;2.63;;
44774;SDS011;31340;51.402;0.016;2022-12-29T06:23:35;21.92;;;3.20;;
44774;SDS011;31340;51.402;0.016;2022-12-29T06:26:04;16.27;;;2.85;;
44774;SDS011;31340;51.402;0.016;2022-12-29T06:28:32;16.00;;;2.90;;
44774;SDS011;31340;51.402;0.016;2022-12-29T06:31:00;17.75;;;3.00;;
44774;SDS011;31340;51.402;0.016;2022-12-29T06:33:29;23.35;;;3.50;;
44774;SDS011;31340;51.402;0.016;2022-12-29T06:35:57;16.85;;;3.00;;
44774;SDS011;31340;51.402;0.016;2022-12-29T06:38:25;16.70;;;2.42;;
44774;SDS011;31340;51.402;0.016;2022-12-29T06:40:52;15.48;;;2.88;;
44774;SDS011;31340;51.402;0.016;2022-12-29T06:43:49;15.52;;;3.20;;
44774;SDS011;31340;51.402;0.016;2022-12-29T06:46:44;16.50;;;2.33;;
44774;SDS011;31340;51.402;0.016;2022-12-29T06:49:11;13.05;;;1.90;;
44774;SDS011;31340;51.402;0.016;2022-12-29T06:51:39;11.48;;;2.20;;
44774;SDS011;31340;51.402;0.016;2022-12-29T06:54:07;10.85;;;2.05;;
44774;SDS011;31340;51.402;0.016;2022-12-29T06:56:34;10.93;;;2.03;;
44774;SDS011;31340;51.402;0.016;2022-12-29T06:59:02;10.80;;;1.67;;
44774;SDS011;31340;51.402;0.016;2022-12-29T07:01:30;7.35;;;1.45;;
44774;SDS011;31340;51.402;0.016;2022-12-29T07:03:57;6.72;;;1.40;;
44774;SDS011;31340;51.402;0.016;2022-12-29T07:06:25;12.70;;;1.45;;
44774;SDS011;31340;51.402;0.016;2022-12-29T07:08:52;11.48;;;1.50;;
44774;SDS011;31340;51.402;0.016;2022-12-29T07:11:22;7.97;;;1.60;;
44774;SDS011;31340;51.402;0.016;2022-12-29T07:13:50;5.15;;;1.38;;
44774;SDS011;31340;51.402;0.016;2022-12-29T07:16:18;9.23;;;1.25;;
44774;SDS011;31340;51.402;0.016;2022-12-29T07:18:45;10.55;;;1.20;;
44774;SDS011;31340;51.402;0.016;2022-12-29T07:21:13;7.22;;;1.58;;
44774;SDS011;31340;51.402;0.016;2022-12-29T07:23:41;7.00;;;1.40;;
44774;SDS011;31340;51.402;0.016;2022-12-29T07:26:10;6.88;;;1.48;;
44774;SDS011;31340;51.402;0.016;2022-12-29T07:28:39;5.47;;;1.83;;
44774;SDS011;31340;51.402;0.016;2022-12-29T07:31:15;8.68;;;1.50;;
44774;SDS011;31340;51.402;0.016;2022-12-29T07:33:44;7.15;;;1.33;;
44774;SDS011;31340;51.402;0.016;2022-12-29T07:36:13;7.93;;;1.90;;
44774;SDS011;31340;51.402;0.016;2022-12-29T07:38:41;11.10;;;1.50;;
44774;SDS011;31340;51.402;0.016;2022-12-29T07:41:09;4.30;;;1.10;;
44774;SDS011;31340;51.402;0.016;2022-12-29T07:43:37;7.95;;;1.83;;
44774;SDS011;31340;51.402;0.016;2022-12-29T07:46:27;8.90;;;1.10;;
44774;SDS011;31340;51.402;0.016;2022-12-29T07:49:15;9.55;;;2.03;;
44774;SDS011;31340;51.402;0.016;2022-12-29T07:51:42;11.75;;;1.50;;
44774;SDS011;31340;51.402;0.016;2022-12-29T07:54:10;7.15;;;1.30;;
44774;SDS011;31340;51.402;0.016;2022-12-29T07:56:39;9.27;;;1.65;;
44774;SDS011;31340;51.402;0.016;2022-12-29T07:59:07;6.50;;;1.10;;
44774;SDS011;31340;51.402;0.016;2022-12-29T08:01:34;10.88;;;1.80;;
44774;SDS011;31340;51.402;0.016;2022-12-29T08:04:02;7.65;;;1.55;;
44774;SDS011;31340;51.402;0.016;2022-12-29T08:06:30;8.55;;;1.30;;
44774;SDS011;31340;51.402;0.016;2022-12-29T08:08:58;12.15;;;1.63;;
44774;SDS011;31340;51.402;0.016;2022-12-29T08:11:38;7.10;;;1.10;;
44774;SDS011;31340;51.402;0.016;2022-12-29T08:14:07;9.70;;;1.63;;
44774;SDS011;31340;51.402;0.016;2022-12-29T08:16:34;13.95;;;2.03;;
44774;SDS011;31340;51.402;0.016;2022-12-29T08:19:02;9.20;;;1.60;;
44774;SDS011;31340;51.402;0.016;2022-12-29T08:21:32;7.88;;;1.75;;
44774;SDS011;31340;51.402;0.016;2022-12-29T08:23:59;7.20;;;1.20;;
44774;SDS011;31340;51.402;0.016;2022-12-29T08:26:27;8.70;;;1.63;;
44774;SDS011;31340;51.402;0.016;2022-12-29T08:28:54;11.73;;;1.35;;
44774;SDS011;31340;51.402;0.016;2022-12-29T08:31:23;11.98;;;1.30;;
44774;SDS011;31340;51.402;0.016;2022-12-29T08:33:51;9.15;;;2.10;;
44774;SDS011;31340;51.402;0.016;2022-12-29T08:36:18;7.32;;;1.40;;
44774;SDS011;31340;51.402;0.016;2022-12-29T08:38:46;6.60;;;1.10;;
44774;SDS011;31340;51.402;0.016;2022-12-29T08:41:13;12.40;;;1.83;;
44774;SDS011;31340;51.402;0.016;2022-12-29T08:43:45;11.00;;;1.30;;
44774;SDS011;31340;51.402;0.016;2022-12-29T08:46:14;10.88;;;1.50;;
44774;SDS011;31340;51.402;0.016;2022-12-29T08:48:42;10.30;;;1.58;;
44774;SDS011;31340;51.402;0.016;2022-12-29T08:51:09;7.07;;;1.40;;
44774;SDS011;31340;51.402;0.016;2022-12-29T08:53:37;7.05;;;1.30;;
44774;SDS011;31340;51.402;0.016;2022-12-29T08:56:05;9.07;;;1.40;;
44774;SDS011;31340;51.402;0.016;2022-12-29T08:58:43;8.13;;;1.40;;
44774;SDS011;31340;51.402;0.016;2022-12-29T09:01:10;9.13;;;1.30;;
44774;SDS011;31340;51.402;0.016;2022-12-29T09:03:38;7.65;;;1.70;;
44774;SDS011;31340;51.402;0.016;2022-12-29T09:06:26;7.35;;;1.55;;
44774;SDS011;31340;51.402;0.016;2022-12-29T09:08:54;8.50;;;2.03;;
44774;SDS011;31340;51.402;0.016;2022-12-29T09:11:23;9.18;;;1.55;;
44774;SDS011;31340;51.402;0.016;2022-12-29T09:13:52;8.30;;;1.38;;
44774;SDS011;31340;51.402;0.016;2022-12-29T09:16:21;8.43;;;1.38;;
44774;SDS011;31340;51.402;0.016;2022-12-29T09:18:49;15.07;;;2.03;;
44774;SDS011;31340;51.402;0.016;2022-12-29T09:21:17;8.25;;;1.40;;
44774;SDS011;31340;51.402;0.016;2022-12-29T09:23:45;13.02;;;1.45;;
44774;SDS011;31340;51.402;0.016;2022-12-29T09:26:12;9.68;;;1.58;;
44774;SDS011;31340;51.402;0.016;2022-12-29T09:28:41;4.55;;;1.48;;
44774;SDS011;31340;51.402;0.016;2022-12-29T09:31:09;10.25;;;2.22;;
44774;SDS011;31340;51.402;0.016;2022-12-29T09:33:37;10.18;;;1.67;;
44774;SDS011;31340;51.402;0.016;2022-12-29T09:36:04;8.63;;;1.63;;
44774;SDS011;31340;51.402;0.016;2022-12-29T09:38:33;11.30;;;1.50;;
44774;SDS011;31340;51.402;0.016;2022-12-29T09:44:09;15.48;;;2.25;;
44774;SDS011;31340;51.402;0.016;2022-12-29T09:46:58;12.07;;;2.00;;
44774;SDS011;31340;51.402;0.016;2022-12-29T09:49:44;9.50;;;1.80;;
44774;SDS011;31340;51.402;0.016;2022-12-29T09:52:14;7.65;;;1.73;;
44774;SDS011;31340;51.402;0.016;2022-12-29T09:54:48;14.32;;;1.48;;
44774;SDS011;31340;51.402;0.016;2022-12-29T09:57:40;13.32;;;2.17;;
44774;SDS011;31340;51.402;0.016;2022-12-29T10:00:18;9.68;;;1.55;;
44774;SDS011;31340;51.402;0.016;2022-12-29T10:05:35;12.90;;;1.80;;
44774;SDS011;31340;51.402;0.016;2022-12-29T10:08:33;11.20;;;1.70;;
44774;SDS011;31340;51.402;0.016;2022-12-29T10:13:46;9.38;;;1.38;;
44774;SDS011;31340;51.402;0.016;2022-12-29T10:16:45;8.55;;;1.45;;
44774;SDS011;31340;51.402;0.016;2022-12-29T10:25:22;7.55;;;1.63;;
44774;SDS011;31340;51.402;0.016;2022-12-29T10:27:59;8.60;;;1.77;;
44774;SDS011;31340;51.402;0.016;2022-12-29T10:30:32;10.35;;;1.92;;
44774;SDS011;31340;51.402;0.016;2022-12-29T10:33:02;9.13;;;1.97;;
44774;SDS011;31340;51.402;0.016;2022-12-29T10:35:39;10.35;;;1.45;;
44774;SDS011;31340;51.402;0.016;2022-12-29T10:41:02;6.70;;;1.45;;
44774;SDS011;31340;51.402;0.016;2022-12-29T10:43:48;5.32;;;1.17;;
44774;SDS011;31340;51.402;0.016;2022-12-29T10:46:19;6.32;;;1.27;;
44774;SDS011;31340;51.402;0.016;2022-12-29T10:48:51;6.50;;;1.52;;
44774;SDS011;31340;51.402;0.016;2022-12-29T10:51:22;8.10;;;1.52;;
44774;SDS011;31340;51.402;0.016;2022-12-29T10:56:42;8.27;;;0.90;;
44774;SDS011;31340;51.402;0.016;2022-12-29T11:02:02;5.72;;;1.10;;
44774;SDS011;31340;51.402;0.016;2022-12-29T11:07:10;8.75;;;1.42;;
44774;SDS011;31340;51.402;0.016;2022-12-29T11:09:43;4.68;;;0.90;;
44774;SDS011;31340;51.402;0.016;2022-12-29T11:12:18;9.90;;;1.20;;
44774;SDS011;31340;51.402;0.016;2022-12-29T11:14:47;9.85;;;2.35;;
44774;SDS011;31340;51.402;0.016;2022-12-29T11:17:27;6.07;;;1.08;;
44774;SDS011;31340;51.402;0.016;2022-12-29T11:19:54;4.10;;;1.00;;
44774;SDS011;31340;51.402;0.016;2022-12-29T11:22:24;7.57;;;1.10;;
44774;SDS011;31340;51.402;0.016;2022-12-29T11:24:54;6.22;;;1.88;;
44774;SDS011;31340;51.402;0.016;2022-12-29T11:27:32;5.25;;;1.38;;
44774;SDS011;31340;51.402;0.016;2022-12-29T11:30:00;7.70;;;1.48;;
44774;SDS011;31340;51.402;0.016;2022-12-29T11:32:28;6.45;;;1.48;;
44774;SDS011;31340;51.402;0.016;2022-12-29T11:34:58;7.97;;;1.42;;
44774;SDS011;31340;51.402;0.016;2022-12-29T11:40:02;9.05;;;1.60;;
44774;SDS011;31340;51.402;0.016;2022-12-29T11:42:35;5.05;;;1.40;;
44774;SDS011;31340;51.402;0.016;2022-12-29T11:45:18;5.13;;;1.38;;
44774;SDS011;31340;51.402;0.016;2022-12-29T11:47:49;6.32;;;1.60;;
44774;SDS011;31340;51.402;0.016;2022-12-29T11:50:30;9.63;;;1.63;;
44774;SDS011;31340;51.402;0.016;2022-12-29T11:53:00;7.65;;;1.80;;
44774;SDS011;31340;51.402;0.016;2022-12-29T11:55:32;9.63;;;1.80;;
44774;SDS011;31340;51.402;0.016;2022-12-29T11:58:01;10.40;;;1.67;;
44774;SDS011;31340;51.402;0.016;2022-12-29T12:00:31;12.13;;;1.80;;
44774;SDS011;31340;51.402;0.016;2022-12-29T12:03:04;12.82;;;1.80;;
44774;SDS011;31340;51.402;0.016;2022-12-29T12:05:49;8.77;;;1.60;;
44774;SDS011;31340;51.402;0.016;2022-12-29T12:08:31;9.10;;;2.45;;
44774;SDS011;31340;51.402;0.016;2022-12-29T12:16:33;15.57;;;3.03;;
44774;SDS011;31340;51.402;0.016;2022-12-29T12:19:15;13.55;;;2.60;;
44774;SDS011;31340;51.402;0.016;2022-12-29T12:21:56;15.25;;;2.55;;
44774;SDS011;31340;51.402;0.016;2022-12-29T12:27:16;17.70;;;2.63;;
44774;SDS011;31340;51.402;0.016;2022-12-29T12:30:18;15.20;;;2.20;;
44774;SDS011;31340;51.402;0.016;2022-12-29T12:33:50;13.50;;;2.60;;
44774;SDS011;31340;51.402;0.016;2022-12-29T13:01:42;14.65;;;2.78;;
44774;SDS011;31340;51.402;0.016;2022-12-29T13:04:26;12.93;;;3.28;;
44774;SDS011;31340;51.402;0.016;2022-12-29T13:10:31;12.32;;;2.80;;
44774;SDS011;31340;51.402;0.016;2022-12-29T13:15:59;17.77;;;3.75;;
44774;SDS011;31340;51.402;0.016;2022-12-29T13:18:51;15.80;;;3.13;;
44774;SDS011;31340;51.402;0.016;2022-12-29T13:24:54;16.02;;;2.85;;
44774;SDS011;31340;51.402;0.016;2022-12-29T13:30:31;12.43;;;2.63;;
44774;SDS011;31340;51.402;0.016;2022-12-29T13:38:40;18.23;;;3.40;;
44774;SDS011;31340;51.402;0.016;2022-12-29T13:41:19;16.63;;;2.85;;
44774;SDS011;31340;51.402;0.016;2022-12-29T13:43:54;14.88;;;2.75;;
44774;SDS011;31340;51.402;0.016;2022-12-29T13:46:28;19.10;;;3.17;;
44774;SDS011;31340;51.402;0.016;2022-12-29T13:49:17;14.27;;;2.75;;
44774;SDS011;31340;51.402;0.016;2022-12-29T13:51:51;14.07;;;3.60;;
44774;SDS011;31340;51.402;0.016;2022-12-29T13:54:36;18.17;;;3.40;;
44774;SDS011;31340;51.402;0.016;2022-12-29T14:00:16;16.40;;;3.38;;
44774;SDS011;31340;51.402;0.016;2022-12-29T14:05:31;16.42;;;2.75;;
44774;SDS011;31340;51.402;0.016;2022-12-29T14:08:01;12.82;;;2.83;;
44774;SDS011;31340;51.402;0.016;2022-12-29T14:10:36;21.25;;;2.95;;
44774;SDS011;31340;51.402;0.016;2022-12-29T14:15:42;15.35;;;3.42;;
44774;SDS011;31340;51.402;0.016;2022-12-29T14:18:13;14.77;;;2.67;;
44774;SDS011;31340;51.402;0.016;2022-12-29T14:20:57;16.63;;;3.80;;
44774;SDS011;31340;51.402;0.016;2022-12-29T14:23:29;10.25;;;2.80;;
44774;SDS011;31340;51.402;0.016;2022-12-29T14:28:32;16.42;;;2.92;;
44774;SDS011;31340;51.402;0.016;2022-12-29T14:36:36;14.82;;;2.83;;
44774;SDS011;31340;51.402;0.016;2022-12-29T14:44:46;14.38;;;3.05;;
44774;SDS011;31340;51.402;0.016;2022-12-29T14:47:25;10.52;;;2.40;;
44774;SDS011;31340;51.402;0.016;2022-12-29T14:52:54;19.67;;;2.72;;
44774;SDS011;31340;51.402;0.016;2022-12-29T14:55:45;12.77;;;2.25;;
44774;SDS011;31340;51.402;0.016;2022-12-29T14:58:30;15.27;;;3.15;;
44774;SDS011;31340;51.402;0.016;2022-12-29T15:01:18;14.67;;;2.73;;
44774;SDS011;31340;51.402;0.016;2022-12-29T15:03:50;19.35;;;3.28;;
44774;SDS011;31340;51.402;0.016;2022-12-29T15:06:21;13.18;;;2.90;;
44774;SDS011;31340;51.402;0.016;2022-12-29T15:08:54;16.80;;;2.92;;
44774;SDS011;31340;51.402;0.016;2022-12-29T15:11:41;14.75;;;2.15;;
44774;SDS011;31340;51.402;0.016;2022-12-29T15:14:30;17.23;;;2.50;;
44774;SDS011;31340;51.402;0.016;2022-12-29T15:16:59;18.15;;;2.47;;
44774;SDS011;31340;51.402;0.016;2022-12-29T15:19:28;14.40;;;2.55;;
44774;SDS011;31340;51.402;0.016;2022-12-29T15:21:56;17.60;;;2.55;;
44774;SDS011;31340;51.402;0.016;2022-12-29T15:24:24;10.63;;;2.78;;
44774;SDS011;31340;51.402;0.016;2022-12-29T15:26:52;20.30;;;3.22;;
44774;SDS011;31340;51.402;0.016;2022-12-29T15:29:29;14.40;;;2.60;;
44774;SDS011;31340;51.402;0.016;2022-12-29T15:32:01;17.80;;;2.92;;
44774;SDS011;31340;51.402;0.016;2022-12-29T15:34:44;13.82;;;2.70;;
44774;SDS011;31340;51.402;0.016;2022-12-29T15:42:23;12.85;;;2.95;;
44774;SDS011;31340;51.402;0.016;2022-12-29T15:44:57;12.48;;;2.58;;
44774;SDS011;31340;51.402;0.016;2022-12-29T15:47:37;17.77;;;2.60;;
44774;SDS011;31340;51.402;0.016;2022-12-29T15:52:53;10.85;;;2.35;;
44774;SDS011;31340;51.402;0.016;2022-12-29T15:55:27;15.07;;;2.72;;
44774;SDS011;31340;51.402;0.016;2022-12-29T15:57:57;16.52;;;2.85;;
44774;SDS011;31340;51.402;0.016;2022-12-29T16:00:27;14.48;;;3.10;;
44774;SDS011;31340;51.402;0.016;2022-12-29T16:02:55;9.45;;;2.22;;
44774;SDS011;31340;51.402;0.016;2022-12-29T16:05:39;17.38;;;2.83;;
44774;SDS011;31340;51.402;0.016;2022-12-29T16:11:19;16.65;;;2.65;;
44774;SDS011;31340;51.402;0.016;2022-12-29T16:13:59;14.93;;;2.70;;
44774;SDS011;31340;51.402;0.016;2022-12-29T16:16:29;15.23;;;2.80;;
44774;SDS011;31340;51.402;0.016;2022-12-29T16:19:50;17.92;;;3.25;;
44774;SDS011;31340;51.402;0.016;2022-12-29T16:21:51;14.23;;;2.70;;
44774;SDS011;31340;51.402;0.016;2022-12-29T16:24:19;21.10;;;3.20;;
44774;SDS011;31340;51.402;0.016;2022-12-29T16:27:01;21.35;;;4.22;;
44774;SDS011;31340;51.402;0.016;2022-12-29T16:29:33;22.48;;;4.32;;
44774;SDS011;31340;51.402;0.016;2022-12-29T16:32:02;16.50;;;3.10;;
44774;SDS011;31340;51.402;0.016;2022-12-29T16:34:50;17.45;;;3.67;;
44774;SDS011;31340;51.402;0.016;2022-12-29T16:37:30;19.98;;;3.47;;
44774;SDS011;31340;51.402;0.016;2022-12-29T16:40:20;16.00;;;4.32;;
44774;SDS011;31340;51.402;0.016;2022-12-29T16:42:53;12.05;;;3.45;;
44774;SDS011;31340;51.402;0.016;2022-12-29T16:50:41;16.90;;;3.25;;
44774;SDS011;31340;51.402;0.016;2022-12-29T16:53:20;19.08;;;3.97;;
44774;SDS011;31340;51.402;0.016;2022-12-29T16:55:55;16.70;;;2.95;;
44774;SDS011;31340;51.402;0.016;2022-12-29T16:58:28;19.13;;;3.83;;
44774;SDS011;31340;51.402;0.016;2022-12-29T17:00:58;22.67;;;4.60;;
44774;SDS011;31340;51.402;0.016;2022-12-29T17:03:34;23.05;;;4.28;;
44774;SDS011;31340;51.402;0.016;2022-12-29T17:06:06;24.73;;;3.45;;
44774;SDS011;31340;51.402;0.016;2022-12-29T17:08:41;12.27;;;3.53;;
44774;SDS011;31340;51.402;0.016;2022-12-29T17:11:20;24.05;;;3.92;;
44774;SDS011;31340;51.402;0.016;2022-12-29T17:14:30;19.35;;;3.78;;
44774;SDS011;31340;51.402;0.016;2022-12-29T17:17:04;20.52;;;3.78;;
44774;SDS011;31340;51.402;0.016;2022-12-29T17:19:39;17.83;;;2.70;;
44774;SDS011;31340;51.402;0.016;2022-12-29T17:22:15;20.40;;;3.63;;
44774;SDS011;31340;51.402;0.016;2022-12-29T17:24:44;19.13;;;3.50;;
44774;SDS011;31340;51.402;0.016;2022-12-29T17:27:19;15.77;;;3.58;;
44774;SDS011;31340;51.402;0.016;2022-12-29T17:29:54;12.32;;;2.72;;
44774;SDS011;31340;51.402;0.016;2022-12-29T17:32:24;17.27;;;4.03;;
44774;SDS011;31340;51.402;0.016;2022-12-29T17:34:52;17.80;;;2.83;;
44774;SDS011;31340;51.402;0.016;2022-12-29T17:37:26;18.35;;;3.25;;
44774;SDS011;31340;51.402;0.016;2022-12-29T17:39:54;18.83;;;2.95;;
44774;SDS011;31340;51.402;0.016;2022-12-29T17:42:22;16.00;;;3.83;;
44774;SDS011;31340;51.402;0.016;2022-12-29T17:44:50;14.95;;;2.83;;
44774;SDS011;31340;51.402;0.016;2022-12-29T17:47:18;16.83;;;3.15;;